createdAt,value
2023-03-06T00:00:53.276Z,1.18
2023-03-06T00:03:21.243Z,1.08
2023-03-06T00:05:48.509Z,1.14
2023-03-06T00:08:16.321Z,1.37
2023-03-06T00:10:43.409Z,1.43
2023-03-06T00:13:13.787Z,1.38
2023-03-06T00:15:41.097Z,1.32
2023-03-06T00:18:08.876Z,1.19
2023-03-06T00:20:36.676Z,1.10
2023-03-06T00:23:04.601Z,1.08
2023-03-06T00:25:31.861Z,1.10
2023-03-06T00:27:58.938Z,1.04
2023-03-06T00:30:26.097Z,1.06
2023-03-06T00:32:53.788Z,1.05
2023-03-06T00:35:21.417Z,1.04
2023-03-06T00:37:48.509Z,1.02
2023-03-06T00:40:19.913Z,0.87
2023-03-06T00:42:47.708Z,0.76
2023-03-06T00:45:15.437Z,0.76
2023-03-06T00:47:42.974Z,0.68
2023-03-06T00:50:11.087Z,0.58
2023-03-06T00:52:38.206Z,0.46
2023-03-06T00:55:06.399Z,0.38
2023-03-06T00:57:33.453Z,0.34
2023-03-06T01:00:00.549Z,0.36
2023-03-06T01:02:27.782Z,0.61
2023-03-06T01:04:54.997Z,0.94
2023-03-06T01:07:22.036Z,1.03
2023-03-06T01:09:50.849Z,0.93
2023-03-06T01:12:18.039Z,0.87
2023-03-06T01:14:45.558Z,0.88
2023-03-06T01:17:12.749Z,0.89
2023-03-06T01:19:39.909Z,0.84
2023-03-06T01:22:06.995Z,0.81
2023-03-06T01:24:34.055Z,0.76
2023-03-06T01:27:01.190Z,0.82
2023-03-06T01:29:28.264Z,0.79
2023-03-06T01:31:55.425Z,0.75
2023-03-06T01:34:22.672Z,0.72
2023-03-06T01:36:49.783Z,0.69
2023-03-06T01:39:16.841Z,0.53
2023-03-06T01:41:43.940Z,0.39
2023-03-06T01:44:13.921Z,0.31
2023-03-06T01:46:45.216Z,0.21
2023-03-06T01:49:29.641Z,0.23
2023-03-06T01:52:05.978Z,0.37
2023-03-06T01:54:36.529Z,0.45
2023-03-06T01:57:11.886Z,0.42
2023-03-06T01:59:40.837Z,0.48
2023-03-06T02:02:10.835Z,0.48
2023-03-06T02:04:40.458Z,0.53
2023-03-06T02:07:08.542Z,0.41
2023-03-06T02:09:37.884Z,0.42
2023-03-06T02:12:13.588Z,0.41
2023-03-06T02:14:42.389Z,0.55
2023-03-06T02:17:11.873Z,0.73
2023-03-06T02:20:00.746Z,0.91
2023-03-06T02:22:38.078Z,0.98
2023-03-06T02:25:16.003Z,0.95
2023-03-06T02:27:44.417Z,1.01
2023-03-06T02:30:16.805Z,0.95
2023-03-06T02:32:43.973Z,0.86
2023-03-06T02:35:22.710Z,0.83
2023-03-06T02:37:50.230Z,0.67
2023-03-06T02:40:21.021Z,0.60
2023-03-06T02:42:51.039Z,0.56
2023-03-06T02:45:30.528Z,0.47
2023-03-06T02:47:57.609Z,0.59
2023-03-06T02:50:24.826Z,0.67
2023-03-06T02:52:51.924Z,0.76
2023-03-06T02:55:19.119Z,0.95
2023-03-06T02:57:46.681Z,1.03
2023-03-06T03:00:15.064Z,1.05
2023-03-06T03:02:43.726Z,1.18
2023-03-06T03:05:10.892Z,1.17
2023-03-06T03:07:41.777Z,1.07
2023-03-06T03:10:10.745Z,1.00
2023-03-06T03:12:38.456Z,1.10
2023-03-06T03:15:06.413Z,1.29
2023-03-06T03:17:36.459Z,1.24
2023-03-06T03:20:04.888Z,1.25
2023-03-06T03:22:32.080Z,1.12
2023-03-06T03:24:59.167Z,1.04
2023-03-06T03:27:27.028Z,1.05
2023-03-06T03:29:57.690Z,0.98
2023-03-06T03:32:25.157Z,1.02
2023-03-06T03:34:52.848Z,1.09
2023-03-06T03:37:20.172Z,1.00
2023-03-06T03:39:47.398Z,0.95
2023-03-06T03:42:14.574Z,0.99
2023-03-06T03:44:41.732Z,1.15
2023-03-06T03:47:08.809Z,1.22
2023-03-06T03:49:36.421Z,1.26
2023-03-06T03:52:04.026Z,1.25
2023-03-06T03:54:33.820Z,1.14
2023-03-06T03:57:01.004Z,1.12
2023-03-06T03:59:32.979Z,1.37
2023-03-06T04:02:21.970Z,1.57
2023-03-06T04:04:57.596Z,1.76
2023-03-06T04:07:24.981Z,1.58
2023-03-06T04:09:52.148Z,1.46
2023-03-06T04:12:19.564Z,1.41
2023-03-06T04:14:47.633Z,1.54
2023-03-06T04:17:15.647Z,1.58
2023-03-06T04:19:43.178Z,1.58
2023-03-06T04:22:10.276Z,1.49
2023-03-06T04:24:39.388Z,1.48
2023-03-06T04:27:06.863Z,1.51
2023-03-06T04:29:34.234Z,1.70
2023-03-06T04:32:02.132Z,1.88
2023-03-06T04:34:29.418Z,1.87
2023-03-06T04:36:57.599Z,1.73
2023-03-06T04:39:24.818Z,1.70
2023-03-06T04:41:51.985Z,1.77
2023-03-06T04:44:19.146Z,2.01
2023-03-06T04:46:46.251Z,2.12
2023-03-06T04:49:13.360Z,2.12
2023-03-06T04:51:40.485Z,2.12
2023-03-06T04:54:07.598Z,2.21
2023-03-06T04:56:34.768Z,2.25
2023-03-06T04:59:04.396Z,2.29
2023-03-06T05:01:31.562Z,2.24
2023-03-06T05:03:58.679Z,2.22
2023-03-06T05:06:25.717Z,2.17
2023-03-06T05:08:52.830Z,2.15
2023-03-06T05:11:19.965Z,2.22
2023-03-06T05:13:47.055Z,2.29
2023-03-06T05:16:14.223Z,2.46
2023-03-06T05:18:41.333Z,2.72
2023-03-06T05:21:08.511Z,2.91
2023-03-06T05:23:38.645Z,2.89
2023-03-06T05:26:08.966Z,2.70
2023-03-06T05:28:36.211Z,2.53
2023-03-06T05:31:03.643Z,2.55
2023-03-06T05:33:33.219Z,2.31
2023-03-06T05:36:00.629Z,2.19
2023-03-06T05:38:28.474Z,2.08
2023-03-06T05:40:56.230Z,2.12
2023-03-06T05:43:23.763Z,2.17
2023-03-06T05:45:53.052Z,2.33
2023-03-06T05:48:20.242Z,2.36
2023-03-06T05:50:55.631Z,2.17
2023-03-06T05:53:22.753Z,2.20
2023-03-06T05:55:57.598Z,2.54
2023-03-06T05:58:24.726Z,3.01
2023-03-06T06:00:52.335Z,3.19
2023-03-06T06:03:20.481Z,3.12
2023-03-06T06:05:47.593Z,3.25
2023-03-06T06:08:14.861Z,3.38
2023-03-06T06:10:42.026Z,3.70
2023-03-06T06:13:09.187Z,3.70
2023-03-06T06:15:38.395Z,3.88
2023-03-06T06:18:05.637Z,3.72
2023-03-06T06:20:32.864Z,3.59
2023-03-06T06:23:00.174Z,3.87
2023-03-06T06:25:27.340Z,4.07
2023-03-06T06:27:57.930Z,4.14
2023-03-06T06:30:25.432Z,3.99
2023-03-06T06:32:52.605Z,3.71
2023-03-06T06:35:19.736Z,3.73
2023-03-06T06:37:46.865Z,4.19
2023-03-06T06:40:14.210Z,3.99
2023-03-06T06:42:41.837Z,4.39
2023-03-06T06:45:11.078Z,4.58
2023-03-06T06:47:41.518Z,4.39
2023-03-06T06:50:13.183Z,4.45
2023-03-06T06:52:40.591Z,4.56
2023-03-06T06:55:08.287Z,4.68
2023-03-06T06:57:35.346Z,5.11
2023-03-06T07:00:02.707Z,4.58
2023-03-06T07:02:30.135Z,4.51
2023-03-06T07:05:04.184Z,4.82
2023-03-06T07:07:35.316Z,4.95
2023-03-06T07:10:07.224Z,5.13
2023-03-06T07:12:35.331Z,4.96
2023-03-06T07:15:03.323Z,4.71
2023-03-06T07:17:30.522Z,4.36
2023-03-06T07:19:57.623Z,4.45
2023-03-06T07:22:24.786Z,4.73
2023-03-06T07:24:51.966Z,4.66
2023-03-06T07:27:19.362Z,4.42
2023-03-06T07:29:46.744Z,4.82
2023-03-06T07:32:13.900Z,5.01
2023-03-06T07:34:41.055Z,5.49
2023-03-06T07:37:08.260Z,5.25
2023-03-06T07:39:35.590Z,5.01
2023-03-06T07:42:02.847Z,5.15
2023-03-06T07:44:30.105Z,5.13
2023-03-06T07:46:57.189Z,5.35
2023-03-06T07:49:24.290Z,5.62
2023-03-06T07:51:51.345Z,6.11
2023-03-06T07:54:18.455Z,6.20
2023-03-06T07:56:45.679Z,6.75
2023-03-06T07:59:12.745Z,6.80
2023-03-06T08:01:40.422Z,7.23
2023-03-06T08:04:07.649Z,7.21
2023-03-06T08:06:34.746Z,7.21
2023-03-06T08:09:01.830Z,7.09
2023-03-06T08:11:30.857Z,6.80
2023-03-06T08:13:58.657Z,7.03
2023-03-06T08:16:28.419Z,7.03
2023-03-06T08:18:56.322Z,7.36
2023-03-06T08:21:26.018Z,7.64
2023-03-06T08:23:53.479Z,7.15
2023-03-06T08:26:24.266Z,7.43
2023-03-06T08:28:52.711Z,7.18
2023-03-06T08:31:31.727Z,7.48
2023-03-06T08:34:01.587Z,7.80
2023-03-06T08:36:29.138Z,8.07
2023-03-06T08:38:56.499Z,8.24
2023-03-06T08:41:23.638Z,8.02
2023-03-06T08:43:51.554Z,8.54
2023-03-06T08:46:19.464Z,8.89
2023-03-06T08:48:49.814Z,9.40
2023-03-06T08:51:18.597Z,8.97
2023-03-06T08:53:46.589Z,9.06
2023-03-06T08:56:18.360Z,9.01
2023-03-06T08:58:45.654Z,9.31
2023-03-06T09:01:21.499Z,9.77
2023-03-06T09:03:49.271Z,9.79
2023-03-06T09:06:17.659Z,9.81
2023-03-06T09:08:44.906Z,9.90
2023-03-06T09:11:16.027Z,9.79
2023-03-06T09:13:43.832Z,10.09
2023-03-06T09:16:11.891Z,9.89
2023-03-06T09:18:39.100Z,10.03
2023-03-06T09:21:08.225Z,10.26
2023-03-06T09:23:36.196Z,10.10
2023-03-06T09:26:03.780Z,10.19
2023-03-06T09:28:31.266Z,10.56
2023-03-06T09:30:58.767Z,11.07
2023-03-06T09:33:27.027Z,10.76
2023-03-06T09:35:56.353Z,10.26
2023-03-06T09:38:26.603Z,9.80
2023-03-06T09:41:06.127Z,9.92
2023-03-06T09:43:39.361Z,9.93
2023-03-06T10:17:22.415Z,9.68
2023-03-06T10:19:50.011Z,10.18
2023-03-06T10:22:30.799Z,10.10
2023-03-06T10:25:14.282Z,10.45
2023-03-06T10:27:44.244Z,10.82
2023-03-06T10:30:17.003Z,11.02
2023-03-06T10:32:58.645Z,10.81
2023-03-06T10:35:31.620Z,10.88
2023-03-06T10:38:24.623Z,11.32
2023-03-06T10:41:13.380Z,10.98
2023-03-06T10:44:02.903Z,11.16
2023-03-06T10:46:34.521Z,10.66
2023-03-06T10:49:06.386Z,10.37
2023-03-06T10:51:35.657Z,10.34
2023-03-06T10:54:19.621Z,10.61
2023-03-06T10:56:47.751Z,10.33
2023-03-06T10:59:17.891Z,10.57
2023-03-06T11:01:52.637Z,10.21
2023-03-06T11:04:23.593Z,9.89
2023-03-06T11:07:22.795Z,10.35
2023-03-06T11:09:58.799Z,10.83
2023-03-06T11:12:32.390Z,11.05
2023-03-06T11:15:10.168Z,10.74
2023-03-06T11:17:59.477Z,10.30
2023-03-06T11:20:50.962Z,10.90
2023-03-06T11:23:45.805Z,11.40
2023-03-06T11:26:20.240Z,10.96
2023-03-06T11:29:19.982Z,10.55
2023-03-06T11:31:53.222Z,10.01
2023-03-06T11:34:39.617Z,9.89
2023-03-06T11:37:31.092Z,10.04
2023-03-06T11:40:05.954Z,10.26
2023-03-06T11:42:40.971Z,11.02
2023-03-06T11:45:24.204Z,11.44
2023-03-06T11:48:03.103Z,11.50
2023-03-06T11:50:38.765Z,11.73
2023-03-06T11:53:11.057Z,12.18
2023-03-06T11:55:56.009Z,11.82
2023-03-06T11:58:57.189Z,12.02
2023-03-06T12:01:57.744Z,12.04
2023-03-06T12:04:53.732Z,10.61
2023-03-06T12:07:34.125Z,10.30
2023-03-06T12:10:38.714Z,10.60
2023-03-06T12:16:05.756Z,10.46
2023-03-06T12:18:41.970Z,9.85
2023-03-06T12:21:27.194Z,9.78
2023-03-06T12:24:00.488Z,9.80
2023-03-06T12:27:07.614Z,9.77
2023-03-06T12:29:37.257Z,9.71
2023-03-06T12:32:21.438Z,9.52
2023-03-06T12:35:04.081Z,9.24
2023-03-06T12:38:18.602Z,9.64
2023-03-06T12:41:14.991Z,9.87
2023-03-06T12:43:54.748Z,9.75
2023-03-06T12:46:23.733Z,9.52
2023-03-06T12:49:09.369Z,9.65
2023-03-06T12:51:37.834Z,9.77
2023-03-06T12:54:05.417Z,9.80
2023-03-06T12:56:34.736Z,9.90
2023-03-06T12:59:06.070Z,10.19
2023-03-06T13:01:33.153Z,10.07
2023-03-06T13:04:20.418Z,10.09
2023-03-06T13:07:04.323Z,10.57
2023-03-06T13:10:07.209Z,10.75
2023-03-06T13:12:55.784Z,10.82
2023-03-06T13:15:39.727Z,10.46
2023-03-06T13:18:21.982Z,10.26
2023-03-06T13:20:50.367Z,10.34
2023-03-06T13:23:29.771Z,10.20
2023-03-06T13:25:59.842Z,10.21
2023-03-06T13:28:40.398Z,10.03
2023-03-06T13:31:18.209Z,10.05
2023-03-06T13:33:55.303Z,10.02
2023-03-06T13:36:39.604Z,10.13
2023-03-06T13:39:11.556Z,10.42
2023-03-06T13:41:42.812Z,10.34
2023-03-06T13:44:25.269Z,10.28
2023-03-06T13:47:39.752Z,10.12
2023-03-06T13:50:37.965Z,10.30
2023-03-06T13:53:35.428Z,10.35
2023-03-06T13:56:43.816Z,10.58
2023-03-06T13:59:22.942Z,10.46
2023-03-06T14:02:10.471Z,10.20
2023-03-06T14:04:57.877Z,10.65
2023-03-06T14:07:33.650Z,10.72
2023-03-06T14:10:25.896Z,10.91
2023-03-06T14:13:01.146Z,10.55
2023-03-06T14:15:42.396Z,10.52
2023-03-06T14:18:33.015Z,10.78
2023-03-06T14:21:00.134Z,10.43
2023-03-06T14:23:42.763Z,10.77
2023-03-06T14:26:17.656Z,10.58
2023-03-06T14:29:05.056Z,10.74
2023-03-06T14:31:41.034Z,10.70
2023-03-06T14:34:18.349Z,10.65
2023-03-06T14:36:49.284Z,10.61
2023-03-06T14:39:27.618Z,10.60
2023-03-06T14:42:25.605Z,10.37
2023-03-06T14:45:16.488Z,10.15
2023-03-06T14:47:49.321Z,10.17
2023-03-06T14:50:24.277Z,10.05
2023-03-06T14:52:56.226Z,9.96
2023-03-06T14:55:26.160Z,9.94
2023-03-06T14:57:58.498Z,9.69
2023-03-06T15:00:33.459Z,9.67
2023-03-06T15:03:00.913Z,9.87
2023-03-06T15:05:30.929Z,9.65
2023-03-06T15:08:02.674Z,9.64
2023-03-06T15:10:32.603Z,9.62
2023-03-06T15:13:11.479Z,9.43
2023-03-06T15:15:38.813Z,9.45
2023-03-06T15:18:28.918Z,9.48
2023-03-06T15:21:10.884Z,9.41
2023-03-06T15:23:44.283Z,9.37
2023-03-06T15:26:31.548Z,9.14
2023-03-06T15:29:11.135Z,9.09
2023-03-06T15:31:43.816Z,9.01
2023-03-06T15:38:02.968Z,8.96
2023-03-06T15:40:32.074Z,8.77
2023-03-06T15:42:59.503Z,8.60
2023-03-06T15:45:29.559Z,8.62
2023-03-06T15:47:56.687Z,8.39
2023-03-06T15:50:29.443Z,8.49
2023-03-06T15:52:56.709Z,8.34
2023-03-06T15:55:26.252Z,7.78
2023-03-06T15:57:59.926Z,7.64
2023-03-06T16:00:34.340Z,7.64
2023-03-06T16:03:03.036Z,7.54
2023-03-06T16:05:30.499Z,7.45
2023-03-06T16:07:57.868Z,7.24
2023-03-06T16:10:28.027Z,7.17
2023-03-06T16:12:59.970Z,7.10
2023-03-06T16:15:31.055Z,7.13
2023-03-06T16:17:59.044Z,7.25
2023-03-06T16:20:29.958Z,7.70
2023-03-06T16:22:57.238Z,7.25
2023-03-06T16:25:28.303Z,7.27
2023-03-06T16:28:01.185Z,7.55
2023-03-06T16:30:33.521Z,7.72
2023-03-06T16:33:01.944Z,7.88
2023-03-06T16:35:29.108Z,7.90
2023-03-06T16:37:56.271Z,7.81
2023-03-06T16:40:27.472Z,7.67
2023-03-06T16:42:55.346Z,7.27
2023-03-06T16:45:23.519Z,7.34
2023-03-06T16:47:51.133Z,7.73
2023-03-06T16:50:33.328Z,7.02
2023-03-06T16:53:00.409Z,7.69
2023-03-06T16:55:27.862Z,7.62
2023-03-06T16:57:55.097Z,7.68
2023-03-06T17:00:25.001Z,8.00
2023-03-06T17:02:52.697Z,8.08
2023-03-06T17:05:20.161Z,7.11
2023-03-06T17:07:47.582Z,6.79
2023-03-06T17:10:16.701Z,6.60
2023-03-06T17:12:43.821Z,7.03
2023-03-06T17:15:11.992Z,7.29
2023-03-06T17:17:39.104Z,6.89
2023-03-06T17:20:12.695Z,6.05
2023-03-06T17:22:40.685Z,5.81
2023-03-06T17:25:08.917Z,6.28
2023-03-06T17:27:36.536Z,6.71
2023-03-06T17:30:05.353Z,6.98
2023-03-06T17:32:33.014Z,7.13
2023-03-06T17:35:00.180Z,7.27
2023-03-06T17:37:27.338Z,7.25
2023-03-06T17:39:54.520Z,7.03
2023-03-06T17:42:21.737Z,7.11
2023-03-06T17:44:48.801Z,7.32
2023-03-06T17:47:15.890Z,6.99
2023-03-06T17:49:43.159Z,6.99
2023-03-06T17:52:10.411Z,7.54
2023-03-06T17:54:37.642Z,7.63
2023-03-06T17:57:05.849Z,7.57
2023-03-06T17:59:36.621Z,7.44
2023-03-06T18:02:06.372Z,6.97
2023-03-06T18:04:33.674Z,6.96
2023-03-06T18:07:00.811Z,6.74
2023-03-06T18:09:27.906Z,7.12
2023-03-06T18:11:54.994Z,7.20
2023-03-06T18:14:22.165Z,7.55
2023-03-06T18:16:49.431Z,7.67
2023-03-06T18:19:17.844Z,7.73
2023-03-06T18:21:47.347Z,7.53
2023-03-06T18:24:14.567Z,7.40
2023-03-06T18:26:42.576Z,7.56
2023-03-06T18:29:09.725Z,7.49
2023-03-06T18:31:38.785Z,7.28
2023-03-06T18:34:10.092Z,6.63
2023-03-06T18:36:37.572Z,6.44
2023-03-06T18:39:08.755Z,6.28
2023-03-06T18:41:36.479Z,6.47
2023-03-06T18:44:04.378Z,6.21
2023-03-06T18:46:35.278Z,6.31
2023-03-06T18:49:02.904Z,6.77
2023-03-06T18:51:30.217Z,6.98
2023-03-06T18:53:58.525Z,7.26
2023-03-06T18:56:26.134Z,7.30
2023-03-06T18:58:54.053Z,7.22
2023-03-06T19:01:22.810Z,7.25
2023-03-06T19:03:50.039Z,7.18
2023-03-06T19:06:18.281Z,7.25
2023-03-06T19:08:45.381Z,7.23
2023-03-06T19:11:17.282Z,7.43
2023-03-06T19:13:44.888Z,7.15
2023-03-06T19:16:20.891Z,6.99
2023-03-06T19:18:48.907Z,6.69
2023-03-06T19:21:18.826Z,7.01
2023-03-06T19:23:46.711Z,7.16
2023-03-06T19:26:14.466Z,6.98
2023-03-06T19:28:43.397Z,6.82
2023-03-06T19:31:19.504Z,6.96
2023-03-06T19:33:48.893Z,7.09
2023-03-06T19:36:18.530Z,7.22
2023-03-06T19:38:50.441Z,7.33
2023-03-06T19:41:17.939Z,7.29
2023-03-06T19:43:45.064Z,7.56
2023-03-06T19:46:13.528Z,7.41
2023-03-06T19:48:41.814Z,7.05
2023-03-06T19:51:09.001Z,7.12
2023-03-06T19:53:36.786Z,7.38
2023-03-06T19:56:18.410Z,7.33
2023-03-06T19:58:45.754Z,6.57
2023-03-06T20:01:15.340Z,6.17
2023-03-06T20:03:42.945Z,6.32
2023-03-06T20:06:18.720Z,6.47
2023-03-06T20:08:47.206Z,6.66
2023-03-06T20:11:22.710Z,6.21
2023-03-06T20:13:49.954Z,6.16
2023-03-06T20:16:18.199Z,6.35
2023-03-06T20:18:45.876Z,6.45
2023-03-06T20:21:13.851Z,6.57
2023-03-06T20:23:41.507Z,6.68
2023-03-06T20:26:12.265Z,6.08
2023-03-06T20:28:40.550Z,6.12
2023-03-06T20:31:11.287Z,6.11
2023-03-06T20:33:38.506Z,6.41
2023-03-06T20:36:12.361Z,6.15
2023-03-06T20:38:39.584Z,5.82
2023-03-06T20:41:08.947Z,5.74
2023-03-06T20:43:36.055Z,5.72
2023-03-06T20:46:04.225Z,5.44
2023-03-06T20:48:31.626Z,5.22
2023-03-06T20:51:00.477Z,5.10
2023-03-06T20:53:27.588Z,4.90
2023-03-06T20:55:54.783Z,4.85
2023-03-06T20:58:23.520Z,4.88
2023-03-06T21:00:50.638Z,4.87
2023-03-06T21:03:17.760Z,5.23
2023-03-06T21:05:48.093Z,5.64
2023-03-06T21:08:16.040Z,5.57
2023-03-06T21:10:45.009Z,4.86
2023-03-06T21:13:12.187Z,4.87
2023-03-06T21:15:40.787Z,4.94
2023-03-06T21:18:09.048Z,5.14
2023-03-06T21:20:39.701Z,5.38
2023-03-06T21:23:07.337Z,4.88
2023-03-06T21:25:34.692Z,4.28
2023-03-06T21:28:01.878Z,3.86
2023-03-06T21:30:29.489Z,3.54
2023-03-06T21:32:56.877Z,3.33
2023-03-06T21:35:24.054Z,3.57
2023-03-06T21:37:51.799Z,3.86
2023-03-06T21:40:19.133Z,3.98
2023-03-06T21:42:46.203Z,4.09
2023-03-06T21:45:13.332Z,4.11
2023-03-06T21:47:41.145Z,4.48
2023-03-06T21:50:10.849Z,4.75
2023-03-06T21:52:38.030Z,5.25
2023-03-06T21:55:06.139Z,5.70
2023-03-06T21:57:33.264Z,5.36
2023-03-06T22:00:00.481Z,5.82
2023-03-06T22:02:27.664Z,6.07
2023-03-06T22:04:54.876Z,6.35
2023-03-06T22:07:23.061Z,6.51
2023-03-06T22:09:53.505Z,6.21
2023-03-06T22:12:21.489Z,6.22
2023-03-06T22:14:48.576Z,5.90
2023-03-06T22:17:15.783Z,6.41
2023-03-06T22:19:42.838Z,6.35
2023-03-06T22:22:10.779Z,6.82
2023-03-06T22:24:37.986Z,6.26
2023-03-06T22:27:05.388Z,6.13
2023-03-06T22:29:32.470Z,6.21
2023-03-06T22:31:59.730Z,6.51
2023-03-06T22:34:26.898Z,6.77
2023-03-06T22:36:54.065Z,6.87
2023-03-06T22:39:21.268Z,6.57
2023-03-06T22:41:48.589Z,6.77
2023-03-06T22:44:18.536Z,6.22
2023-03-06T22:46:46.383Z,6.62
2023-03-06T22:49:14.904Z,6.78
2023-03-06T22:51:41.929Z,7.11
2023-03-06T22:54:09.857Z,7.30
2023-03-06T22:56:37.006Z,7.32
2023-03-06T22:59:04.596Z,7.08
2023-03-06T23:01:34.114Z,7.08
2023-03-06T23:04:04.034Z,7.14
2023-03-06T23:06:33.682Z,7.26
2023-03-06T23:09:22.533Z,7.55
2023-03-06T23:12:09.309Z,7.42
2023-03-06T23:14:55.142Z,7.18
2023-03-06T23:17:40.917Z,7.14
2023-03-06T23:20:26.751Z,7.21
2023-03-06T23:23:12.717Z,7.49
2023-03-06T23:25:43.667Z,7.47
2023-03-06T23:28:11.536Z,7.43
2023-03-06T23:30:40.219Z,7.27
2023-03-06T23:33:07.937Z,7.18
2023-03-06T23:35:36.156Z,7.24
2023-03-06T23:38:03.625Z,7.52
2023-03-06T23:40:33.708Z,7.41
2023-03-06T23:43:01.359Z,7.23
2023-03-06T23:45:28.509Z,7.28
2023-03-06T23:47:55.909Z,7.11
2023-03-06T23:50:24.390Z,7.28
2023-03-06T23:52:55.660Z,7.48
2023-03-06T23:55:22.898Z,7.42
2023-03-06T23:57:49.996Z,7.25
